Tor Futura — OZZE2 — position and weather

sailwx.info

Track history (hours):
 
Tides and Currents Weather Stations Pressure Air Temp Water Temp Dewpoint Dewpoint Depression Visibility Wind Speed Wind Dir Waves Ship Positions

Tor Futura

Last reported at 2015-Jul-31 14:33 UTC. Time now 2015-Jul-31 15:27 UTC.
Position N 40°20' E 007°18'.

Length 183.1 m; beam 25.2 m; draft 7.8 m.

Type: Cargo ship. MMSI: 219927000.

Date/timePositionNaut miles runAvg speedWind from/ knotsBaromVisibWave heightAir tempDewpointWater temp
2015-Jul-31 14:33N 40°20' E 007°18'1716.0
2015-Jul-31 13:30N 40°05' E 007°29'7915.6
2015-Jul-31 08:27N 38°56' E 008°18'3315.2
2015-Jul-31 06:16N 38°34' E 008°49'1216.2
2015-Jul-31 05:33N 38°27' E 009°01'1616.0
2015-Jul-31 04:33N 38°17' E 009°17'1615.7
2015-Jul-31 03:33N 38°07' E 009°33'1615.8
2015-Jul-31 02:32N 37°57' E 009°49'1515.6
2015-Jul-31 01:33N 37°48' E 010°04'1515.2
2015-Jul-31 00:32N 37°37' E 010°18'1414.2
2015-Jul-30 23:33N 37°24' E 010°24'1515.4
2015-Jul-30 22:33N 37°09' E 010°24'20 1.0
2015-Jul-30 02:27N 36°49' E 010°18'0 0.0
2015-Jul-30 01:30N 36°49' E 010°18'0 0.0
2015-Jul-30 00:33N 36°49' E 010°18'1 1.0
2015-Jul-29 23:30N 36°48' E 010°19'8 8.5
2015-Jul-29 22:33N 36°55' E 010°23'2016.0
2015-Jul-29 21:17N 37°16' E 010°23'3013.8
2015-Jul-29 19:06N 37°37' E 009°56'916.6
2015-Jul-29 18:33N 37°43' E 009°48'1616.4
2015-Jul-29 17:32N 37°55' E 009°33'1616.4
2015-Jul-29 16:33N 38°05' E 009°17'1616.2
2015-Jul-29 15:33N 38°17' E 009°03'1816.4
2015-Jul-29 14:27N 38°30' E 008°47'1516.4
2015-Jul-29 13:33N 38°40' E 008°33'2117.0
2015-Jul-29 12:17N 38°57' E 008°17'23116.8
2015-Jul-28 22:31N 42°19' E 005°49'1616.6
2015-Jul-28 21:33N 42°33' E 005°38'1616.4
2015-Jul-28 20:33N 42°48' E 005°27'1616.5
2015-Jul-28 19:33N 43°02' E 005°17'1515.3
2015-Jul-28 18:33N 43°16' E 005°09'9 9.3
2015-Jul-28 17:33N 43°19' E 005°22'0 0.0
2015-Jul-28 16:32N 43°19' E 005°22'0 0.0
2015-Jul-28 15:32N 43°19' E 005°22'0 0.0
2015-Jul-28 14:29N 43°19' E 005°22'0 0.0
2015-Jul-28 13:32N 43°19' E 005°22'0 0.0
2015-Jul-28 12:32N 43°19' E 005°22'0 0.0
2015-Jul-28 11:32N 43°19' E 005°22'0 0.0
2015-Jul-28 10:32N 43°19' E 005°22'0 0.0
2015-Jul-28 09:32N 43°19' E 005°22'0 0.0
2015-Jul-28 08:32N 43°19' E 005°22'0 0.0
2015-Jul-28 07:32N 43°19' E 005°22'0 0.0
2015-Jul-28 06:32N 43°19' E 005°22'0 0.0
2015-Jul-28 05:32N 43°19' E 005°22'0 0.0
2015-Jul-28 04:32N 43°19' E 005°22'0 0.0
2015-Jul-28 03:32N 43°19' E 005°22'0 0.0
2015-Jul-28 02:32N 43°19' E 005°22'0 0.0
2015-Jul-28 01:20N 43°19' E 005°22'0 0.0
2015-Jul-28 00:32N 43°19' E 005°22'0 0.0
2015-Jul-27 23:32N 43°19' E 005°22'0 0.0
2015-Jul-27 22:32N 43°19' E 005°22'0 0.0
2015-Jul-27 21:32N 43°19' E 005°22'0 0.0
2015-Jul-27 20:32N 43°19' E 005°22'0 0.0
2015-Jul-27 19:32N 43°19' E 005°22'0 0.0
2015-Jul-27 18:32N 43°19' E 005°22'0 0.0
2015-Jul-27 17:32N 43°19' E 005°22'0 0.0
2015-Jul-27 16:32N 43°19' E 005°22'0 0.0
2015-Jul-27 15:32N 43°19' E 005°22'0 0.0
2015-Jul-27 14:32N 43°19' E 005°22'0 0.0
2015-Jul-27 13:26N 43°19' E 005°22'0 0.0
2015-Jul-27 12:32N 43°19' E 005°22'0 0.0
2015-Jul-27 11:17N 43°19' E 005°22'0 0.0
2015-Jul-27 10:32N 43°19' E 005°22'0 0.0
2015-Jul-27 09:32N 43°19' E 005°22'0 0.0
2015-Jul-27 08:32N 43°19' E 005°22'0 0.0
2015-Jul-27 07:29N 43°19' E 005°22'0 0.2
2015-Jul-27 06:33N 43°19' E 005°21'4 4.1
2015-Jul-27 05:33N 43°20' E 005°16'1010.0
2015-Jul-27 04:33N 43°10' E 005°12'1717.1
2015-Jul-27 03:33N 42°55' E 005°23'1717.3
2015-Jul-27 02:33N 42°40' E 005°35'1716.9
2015-Jul-27 01:33N 42°25' E 005°46'1717.5
2015-Jul-27 00:33N 42°09' E 005°57'7717.3
2015-Jul-26 20:08N 41°03' E 006°47'1017.5
2015-Jul-26 19:33N 40°54' E 006°54'15817.6
2015-Jul-26 10:33N 38°39' E 008°41'7117.7
2015-Jul-26 06:33N 37°55' E 009°52'1717.3
2015-Jul-26 05:33N 37°44' E 010°09'3817.1
2015-Jul-26 03:20N 37°08' E 010°24'2016.5
2015-Jul-26 02:07N 36°48' E 010°22'134 4.2
2015-Jul-24 18:05N 38°35' E 008°40'3513.6
2015-Jul-24 15:33N 39°02' E 008°13'15313.8
2015-Jul-24 04:24N 41°16' E 006°36'5213.3
2015-Jul-24 00:31N 42°01' E 006°03'1813.7
2015-Jul-23 23:10N 42°17' E 005°50'1313.5
2015-Jul-23 22:13N 42°28' E 005°41'913.8
2015-Jul-23 21:33N 42°36' E 005°35'1413.7
2015-Jul-23 20:33N 42°48' E 005°26'1413.6
2015-Jul-23 19:33N 43°00' E 005°17'1313.5
2015-Jul-23 18:33N 43°12' E 005°09'1010.5
2015-Jul-23 17:33N 43°20' E 005°18'3 3.0
2015-Jul-23 16:31N 43°19' E 005°22'0 0.0
2015-Jul-23 15:28N 43°19' E 005°22'0 0.0
2015-Jul-23 14:22N 43°19' E 005°22'0 0.0
2015-Jul-23 13:28N 43°19' E 005°22'0 0.0
2015-Jul-23 12:28N 43°19' E 005°22'0 0.0
2015-Jul-23 11:22N 43°19' E 005°22'0 0.0
2015-Jul-23 10:28N 43°19' E 005°22'0 0.0
2015-Jul-23 09:28N 43°19' E 005°22'0 0.0
2015-Jul-23 08:22N 43°19' E 005°22'0 0.0
2015-Jul-23 07:28N 43°19' E 005°22'0 0.0
2015-Jul-23 06:28N 43°19' E 005°22'5 5.1
2015-Jul-23 05:33N 43°20' E 005°15'1212.4
2015-Jul-23 04:33N 43°07' E 005°14'1714.7
2015-Jul-23 03:25N 42°53' E 005°25'6014.4
2015-Jul-22 23:13N 41°60' E 006°05'914.1
2015-Jul-22 22:33N 41°52' E 006°11'1414.0
2015-Jul-22 21:33N 41°39' E 006°20'1514.5
2015-Jul-22 20:31N 41°26' E 006°30'1414.3
2015-Jul-22 19:33N 41°14' E 006°39'1514.5
2015-Jul-22 18:32N 41°01' E 006°48'2914.4
2015-Jul-22 16:33N 40°36' E 007°06'1615.4
2015-Jul-22 15:30N 40°22' E 007°17'1716.1
2015-Jul-22 14:26N 40°07' E 007°27'1517.6
2015-Jul-22 13:33N 39°53' E 007°37'1815.2
2015-Jul-22 12:22N 39°37' E 007°48'1215.3
2015-Jul-22 11:33N 39°26' E 007°56'1515.0
2015-Jul-22 10:33N 39°13' E 008°05'1514.8
2015-Jul-22 09:33N 39°00' E 008°15'1714.5
2015-Jul-22 08:24N 38°47' E 008°28'1314.6
2015-Jul-22 07:30N 38°39' E 008°41'1515.0
2015-Jul-22 06:31N 38°30' E 008°56'1715.1
2015-Jul-22 05:22N 38°19' E 009°13'1214.4
2015-Jul-22 04:33N 38°12' E 009°25'1514.9
2015-Jul-22 03:33N 38°03' E 009°40'1515.1
2015-Jul-22 02:32N 37°53' E 009°55'1514.9
2015-Jul-22 01:32N 37°44' E 010°10'1414.6
2015-Jul-22 00:33N 37°32' E 010°20'1514.4
2015-Jul-21 23:30N 37°17' E 010°24'1414.8
2015-Jul-21 22:34N 37°03' E 010°24'16 7.8
2015-Jul-21 20:31N 36°48' E 010°16'0 0.0
2015-Jul-21 17:31N 36°48' E 010°16'  
Track history (hours):
 
Tides and Currents Weather Stations Pressure Air Temp Water Temp Dewpoint Dewpoint Depression Visibility Wind Speed Wind Dir Waves Ship Positions

Tor Futura

Last reported at 2015-Jul-31 14:33 UTC. Time now 2015-Jul-31 15:27 UTC.
Position N 40°20' E 007°18'.

Length 183.1 m; beam 25.2 m; draft 7.8 m.

Type: Cargo ship. MMSI: 219927000.

Date/timePositionNaut miles runAvg speedWind from/ knotsBaromVisibWave heightAir tempDewpointWater temp
2015-Jul-31 14:33N 40°20' E 007°18'1716.0
2015-Jul-31 13:30N 40°05' E 007°29'7915.6
2015-Jul-31 08:27N 38°56' E 008°18'3315.2
2015-Jul-31 06:16N 38°34' E 008°49'1216.2
2015-Jul-31 05:33N 38°27' E 009°01'1616.0
2015-Jul-31 04:33N 38°17' E 009°17'1615.7
2015-Jul-31 03:33N 38°07' E 009°33'1615.8
2015-Jul-31 02:32N 37°57' E 009°49'1515.6
2015-Jul-31 01:33N 37°48' E 010°04'1515.2
2015-Jul-31 00:32N 37°37' E 010°18'1414.2
2015-Jul-30 23:33N 37°24' E 010°24'1515.4
2015-Jul-30 22:33N 37°09' E 010°24'20 1.0
2015-Jul-30 02:27N 36°49' E 010°18'0 0.0
2015-Jul-30 01:30N 36°49' E 010°18'0 0.0
2015-Jul-30 00:33N 36°49' E 010°18'1 1.0
2015-Jul-29 23:30N 36°48' E 010°19'8 8.5
2015-Jul-29 22:33N 36°55' E 010°23'2016.0
2015-Jul-29 21:17N 37°16' E 010°23'3013.8
2015-Jul-29 19:06N 37°37' E 009°56'916.6
2015-Jul-29 18:33N 37°43' E 009°48'1616.4
2015-Jul-29 17:32N 37°55' E 009°33'1616.4
2015-Jul-29 16:33N 38°05' E 009°17'1616.2
2015-Jul-29 15:33N 38°17' E 009°03'1816.4
2015-Jul-29 14:27N 38°30' E 008°47'1516.4
2015-Jul-29 13:33N 38°40' E 008°33'2117.0
2015-Jul-29 12:17N 38°57' E 008°17'23116.8
2015-Jul-28 22:31N 42°19' E 005°49'1616.6
2015-Jul-28 21:33N 42°33' E 005°38'1616.4
2015-Jul-28 20:33N 42°48' E 005°27'1616.5
2015-Jul-28 19:33N 43°02' E 005°17'1515.3
2015-Jul-28 18:33N 43°16' E 005°09'9 9.3
2015-Jul-28 17:33N 43°19' E 005°22'0 0.0
2015-Jul-28 16:32N 43°19' E 005°22'0 0.0
2015-Jul-28 15:32N 43°19' E 005°22'0 0.0
2015-Jul-28 14:29N 43°19' E 005°22'0 0.0
2015-Jul-28 13:32N 43°19' E 005°22'0 0.0
2015-Jul-28 12:32N 43°19' E 005°22'0 0.0
2015-Jul-28 11:32N 43°19' E 005°22'0 0.0
2015-Jul-28 10:32N 43°19' E 005°22'0 0.0
2015-Jul-28 09:32N 43°19' E 005°22'0 0.0
2015-Jul-28 08:32N 43°19' E 005°22'0 0.0
2015-Jul-28 07:32N 43°19' E 005°22'0 0.0
2015-Jul-28 06:32N 43°19' E 005°22'0 0.0
2015-Jul-28 05:32N 43°19' E 005°22'0 0.0
2015-Jul-28 04:32N 43°19' E 005°22'0 0.0
2015-Jul-28 03:32N 43°19' E 005°22'0 0.0
2015-Jul-28 02:32N 43°19' E 005°22'0 0.0
2015-Jul-28 01:20N 43°19' E 005°22'0 0.0
2015-Jul-28 00:32N 43°19' E 005°22'0 0.0
2015-Jul-27 23:32N 43°19' E 005°22'0 0.0
2015-Jul-27 22:32N 43°19' E 005°22'0 0.0
2015-Jul-27 21:32N 43°19' E 005°22'0 0.0
2015-Jul-27 20:32N 43°19' E 005°22'0 0.0
2015-Jul-27 19:32N 43°19' E 005°22'0 0.0
2015-Jul-27 18:32N 43°19' E 005°22'0 0.0
2015-Jul-27 17:32N 43°19' E 005°22'0 0.0
2015-Jul-27 16:32N 43°19' E 005°22'0 0.0
2015-Jul-27 15:32N 43°19' E 005°22'0 0.0
2015-Jul-27 14:32N 43°19' E 005°22'0 0.0
2015-Jul-27 13:26N 43°19' E 005°22'0 0.0
2015-Jul-27 12:32N 43°19' E 005°22'0 0.0
2015-Jul-27 11:17N 43°19' E 005°22'0 0.0
2015-Jul-27 10:32N 43°19' E 005°22'0 0.0
2015-Jul-27 09:32N 43°19' E 005°22'0 0.0
2015-Jul-27 08:32N 43°19' E 005°22'0 0.0
2015-Jul-27 07:29N 43°19' E 005°22'0 0.2
2015-Jul-27 06:33N 43°19' E 005°21'4 4.1
2015-Jul-27 05:33N 43°20' E 005°16'1010.0
2015-Jul-27 04:33N 43°10' E 005°12'1717.1
2015-Jul-27 03:33N 42°55' E 005°23'1717.3
2015-Jul-27 02:33N 42°40' E 005°35'1716.9
2015-Jul-27 01:33N 42°25' E 005°46'1717.5
2015-Jul-27 00:33N 42°09' E 005°57'7717.3
2015-Jul-26 20:08N 41°03' E 006°47'1017.5
2015-Jul-26 19:33N 40°54' E 006°54'15817.6
2015-Jul-26 10:33N 38°39' E 008°41'7117.7
2015-Jul-26 06:33N 37°55' E 009°52'1717.3
2015-Jul-26 05:33N 37°44' E 010°09'3817.1
2015-Jul-26 03:20N 37°08' E 010°24'2016.5
2015-Jul-26 02:07N 36°48' E 010°22'134 4.2
2015-Jul-24 18:05N 38°35' E 008°40'3513.6
2015-Jul-24 15:33N 39°02' E 008°13'15313.8
2015-Jul-24 04:24N 41°16' E 006°36'5213.3
2015-Jul-24 00:31N 42°01' E 006°03'1813.7
2015-Jul-23 23:10N 42°17' E 005°50'1313.5
2015-Jul-23 22:13N 42°28' E 005°41'913.8
2015-Jul-23 21:33N 42°36' E 005°35'1413.7
2015-Jul-23 20:33N 42°48' E 005°26'1413.6
2015-Jul-23 19:33N 43°00' E 005°17'1313.5
2015-Jul-23 18:33N 43°12' E 005°09'1010.5
2015-Jul-23 17:33N 43°20' E 005°18'3 3.0
2015-Jul-23 16:31N 43°19' E 005°22'0 0.0
2015-Jul-23 15:28N 43°19' E 005°22'0 0.0
2015-Jul-23 14:22N 43°19' E 005°22'0 0.0
2015-Jul-23 13:28N 43°19' E 005°22'0 0.0
2015-Jul-23 12:28N 43°19' E 005°22'0 0.0
2015-Jul-23 11:22N 43°19' E 005°22'0 0.0
2015-Jul-23 10:28N 43°19' E 005°22'0 0.0
2015-Jul-23 09:28N 43°19' E 005°22'0 0.0
2015-Jul-23 08:22N 43°19' E 005°22'0 0.0
2015-Jul-23 07:28N 43°19' E 005°22'0 0.0
2015-Jul-23 06:28N 43°19' E 005°22'5 5.1
2015-Jul-23 05:33N 43°20' E 005°15'1212.4
2015-Jul-23 04:33N 43°07' E 005°14'1714.7
2015-Jul-23 03:25N 42°53' E 005°25'6014.4
2015-Jul-22 23:13N 41°60' E 006°05'914.1
2015-Jul-22 22:33N 41°52' E 006°11'1414.0
2015-Jul-22 21:33N 41°39' E 006°20'1514.5
2015-Jul-22 20:31N 41°26' E 006°30'1414.3
2015-Jul-22 19:33N 41°14' E 006°39'1514.5
2015-Jul-22 18:32N 41°01' E 006°48'2914.4
2015-Jul-22 16:33N 40°36' E 007°06'1615.4
2015-Jul-22 15:30N 40°22' E 007°17'1716.1
2015-Jul-22 14:26N 40°07' E 007°27'1517.6
2015-Jul-22 13:33N 39°53' E 007°37'1815.2
2015-Jul-22 12:22N 39°37' E 007°48'1215.3
2015-Jul-22 11:33N 39°26' E 007°56'1515.0
2015-Jul-22 10:33N 39°13' E 008°05'1514.8
2015-Jul-22 09:33N 39°00' E 008°15'1714.5
2015-Jul-22 08:24N 38°47' E 008°28'1314.6
2015-Jul-22 07:30N 38°39' E 008°41'1515.0
2015-Jul-22 06:31N 38°30' E 008°56'1715.1
2015-Jul-22 05:22N 38°19' E 009°13'1214.4
2015-Jul-22 04:33N 38°12' E 009°25'1514.9
2015-Jul-22 03:33N 38°03' E 009°40'1515.1
2015-Jul-22 02:32N 37°53' E 009°55'1514.9
2015-Jul-22 01:32N 37°44' E 010°10'1414.6
2015-Jul-22 00:33N 37°32' E 010°20'1514.4
2015-Jul-21 23:30N 37°17' E 010°24'1414.8
2015-Jul-21 22:34N 37°03' E 010°24'16 7.8
2015-Jul-21 20:31N 36°48' E 010°16'0 0.0
2015-Jul-21 17:31N 36°48' E 010°16'  

Dump ship's entire track history